Headland, Alabama
Current Conditions -  °F | °C
As of 7:53 AM on Thursday 18 Dec 2014 (Local Time) from KDHN Reporting Station
Clear Clear  
Wind Chill: 39°   Ceiling: Unl
Heat Index: 43°   Visibility: 10mi
Dew Point: 39°   Wind: 6mph
Humidity: 86%   Direction: 360°N
Pressure: 30.22"   Gusts: NA
Location:  31.35°N, 85.34°W
Report Text: KDHN 181353Z 36005KT 10SM CLR 06/04 A3022 RMK AO2 SLP233 T00610039 $
Loading
Personal Weather Stations






























Interactive Weather Map New forecast layout! Learn more

10-Day Weather Forecast

Advertisements
Track Severe Weather on mobile